Caro, Michigan
Current Conditions -  °F | °C
As of 11:15 AM on Wednesday 22 Oct 2014 (Local Time) from KCFS Reporting Station
Overcast Overcast  
Wind Chill:   Ceiling: 2000
Heat Index:   Visibility: 10mi
Dew Point:   Wind: 5mph
Humidity: 75%   Direction: 50°NE
Pressure: 30.36"   Gusts: NA
Location:  43.49°N, 83.4°W
Report Text: KCFS 221515Z AUTO 05004KT 10SM OVC020 08/04 A3036 RMK AO2 T00770036
Loading
Personal Weather Stations






























Interactive Weather Map
Tropical Storm Tracking
New forecast layout! Learn more

10-Day Weather Forecast

Advertisements
Track Severe Weather on mobile